Naestved, Denmark
Current Conditions -  °F | °C
As of 12:20 PM on Tuesday 21 Oct 2014 (Local Time) from EKRK Reporting Station
Broken Clouds Broken Clouds  
Wind Chill: 55°   Ceiling: 2200
Heat Index: 55°   Visibility: 6mi
Dew Point: 52°   Wind: 8mph
Humidity: 88%   Direction: 180°S
Pressure: 29.59"   Gusts: NA
Location:  55.23°N, 11.76°E
Report Text: EKRK 211020Z AUTO 18007KT 9999NDV FEW012/// BKN022///BKN090/// 13/11 Q1002
Loading
Personal Weather Stations






























Interactive Weather Map
Tropical Storm Tracking
New forecast layout! Learn more

10-Day Weather Forecast

Advertisements
Track Severe Weather on mobile